createdAt,value
2018-10-04T00:00:18.375Z,8.03
2018-10-04T00:02:47.372Z,7.30
2018-10-04T00:05:16.378Z,9.70
2018-10-04T00:07:45.437Z,8.80
2018-10-04T00:10:14.552Z,7.57
2018-10-04T00:12:43.790Z,7.83
2018-10-04T00:15:12.914Z,7.60
2018-10-04T00:17:42.044Z,6.50
2018-10-04T00:20:11.085Z,7.27
2018-10-04T00:22:40.194Z,6.37
2018-10-04T00:25:09.260Z,6.43
2018-10-04T00:27:38.581Z,7.70
2018-10-04T00:30:07.521Z,7.77
2018-10-04T00:32:36.502Z,7.70
2018-10-04T00:35:05.738Z,7.50
2018-10-04T00:37:34.798Z,7.90
2018-10-04T00:40:03.817Z,7.30
2018-10-04T00:42:32.874Z,7.17
2018-10-04T00:45:01.992Z,7.47
2018-10-04T00:47:38.225Z,7.43
2018-10-04T00:50:07.280Z,6.90
2018-10-04T00:52:36.254Z,7.93
2018-10-04T00:55:05.451Z,7.70
2018-10-04T00:57:34.465Z,8.30
2018-10-04T01:00:03.578Z,7.50
2018-10-04T01:02:32.582Z,7.83
2018-10-04T01:05:01.631Z,7.33
2018-10-04T01:07:30.714Z,8.07
2018-10-04T01:09:59.963Z,7.80
2018-10-04T01:12:29.155Z,8.67
2018-10-04T01:14:58.423Z,9.10
2018-10-04T01:17:27.394Z,7.57
2018-10-04T01:19:56.355Z,8.40
2018-10-04T01:22:25.530Z,7.90
2018-10-04T01:24:54.727Z,8.20
2018-10-04T01:27:23.875Z,8.30
2018-10-04T01:29:53.903Z,9.17
2018-10-04T01:32:22.995Z,9.40
2018-10-04T01:34:51.987Z,8.83
2018-10-04T01:37:20.974Z,8.67
2018-10-04T01:39:50.113Z,10.20
2018-10-04T01:42:19.130Z,10.40
2018-10-04T01:44:48.273Z,7.80
2018-10-04T01:47:17.382Z,9.20
2018-10-04T01:49:46.436Z,8.97
2018-10-04T01:52:15.578Z,10.00
2018-10-04T01:54:44.557Z,9.90
2018-10-04T01:57:13.596Z,9.20
2018-10-04T01:59:42.574Z,8.83
2018-10-04T02:02:11.630Z,9.73
2018-10-04T02:04:41.718Z,8.93
2018-10-04T02:07:10.819Z,8.97
2018-10-04T02:09:41.989Z,9.53
2018-10-04T02:12:11.172Z,8.90
2018-10-04T02:14:41.179Z,8.33
2018-10-04T02:17:10.147Z,8.20
2018-10-04T02:19:39.300Z,9.57
2018-10-04T02:22:08.475Z,9.17
2018-10-04T02:24:38.626Z,8.77
2018-10-04T02:27:07.662Z,8.13
2018-10-04T02:29:36.938Z,8.63
2018-10-04T02:32:06.197Z,8.93
2018-10-04T02:34:35.277Z,9.03
2018-10-04T02:37:04.334Z,7.83
2018-10-04T02:39:33.456Z,10.50
2018-10-04T02:42:02.575Z,8.60
2018-10-04T02:44:32.040Z,9.20
2018-10-04T02:47:01.054Z,9.57
2018-10-04T02:49:30.173Z,9.37
2018-10-04T02:51:59.202Z,8.83
2018-10-04T02:54:29.252Z,9.77
2018-10-04T02:57:00.766Z,9.07
2018-10-04T02:59:29.891Z,9.00
2018-10-04T03:01:58.866Z,8.80
2018-10-04T03:04:27.924Z,9.40
2018-10-04T03:06:57.081Z,9.93
2018-10-04T03:09:26.518Z,8.50
2018-10-04T03:11:55.650Z,9.23
2018-10-04T03:14:24.651Z,9.63
2018-10-04T03:16:54.006Z,9.00
2018-10-04T03:19:23.202Z,10.50
2018-10-04T03:21:52.199Z,9.40
2018-10-04T03:24:21.371Z,9.73
2018-10-04T03:26:50.379Z,8.00
2018-10-04T03:29:20.247Z,9.70
2018-10-04T03:31:50.367Z,9.87
2018-10-04T03:34:19.348Z,8.83
2018-10-04T03:36:48.347Z,10.10
2018-10-04T03:39:17.552Z,9.80
2018-10-04T03:41:46.671Z,9.97
2018-10-04T03:44:15.832Z,9.73
2018-10-04T03:46:44.818Z,9.73
2018-10-04T03:49:13.769Z,10.10
2018-10-04T03:51:42.743Z,9.73
2018-10-04T03:54:11.726Z,9.57
2018-10-04T03:56:40.951Z,10.63
2018-10-04T03:59:10.067Z,9.77
2018-10-04T04:01:39.294Z,9.90
2018-10-04T04:04:08.609Z,9.67
2018-10-04T04:06:38.372Z,10.90
2018-10-04T04:09:09.524Z,11.87
2018-10-04T04:11:38.740Z,10.53
2018-10-04T04:14:07.694Z,9.97
2018-10-04T04:16:36.953Z,11.20
2018-10-04T04:19:06.162Z,11.53
2018-10-04T04:21:35.574Z,11.73
2018-10-04T04:24:04.607Z,10.37
2018-10-04T04:26:33.725Z,10.57
2018-10-04T04:29:02.784Z,11.73
2018-10-04T04:31:31.923Z,10.23
2018-10-04T04:34:01.044Z,10.80
2018-10-04T04:36:30.034Z,11.13
2018-10-04T04:38:59.049Z,10.40
2018-10-04T04:41:28.058Z,9.60
2018-10-04T04:43:57.070Z,11.37
2018-10-04T04:46:26.159Z,11.20
2018-10-04T04:48:55.274Z,10.17
2018-10-04T04:51:24.266Z,10.03
2018-10-04T04:53:53.292Z,11.60
2018-10-04T04:56:22.299Z,10.80
2018-10-04T04:58:51.307Z,10.80
2018-10-04T05:01:20.406Z,9.80
2018-10-04T05:03:49.625Z,10.60
2018-10-04T05:06:18.757Z,9.90
2018-10-04T05:08:47.887Z,10.97
2018-10-04T05:11:17.009Z,10.40
2018-10-04T05:13:46.040Z,10.33
2018-10-04T05:16:15.135Z,10.87
2018-10-04T05:18:44.169Z,11.37
2018-10-04T05:21:13.186Z,10.97
2018-10-04T05:23:42.335Z,10.43
2018-10-04T05:26:11.476Z,10.33
2018-10-04T05:28:40.453Z,10.57
2018-10-04T05:31:09.642Z,10.60
2018-10-04T05:33:38.662Z,9.90
2018-10-04T05:36:07.623Z,10.60
2018-10-04T05:38:36.707Z,10.43
2018-10-04T05:41:05.700Z,10.43
2018-10-04T05:43:34.719Z,11.30
2018-10-04T05:46:03.709Z,9.40
2018-10-04T05:48:32.718Z,9.70
2018-10-04T05:51:01.678Z,9.20
2018-10-04T05:53:32.003Z,9.57
2018-10-04T05:56:01.024Z,10.13
2018-10-04T05:58:30.075Z,10.00
2018-10-04T06:00:59.591Z,10.70
2018-10-04T06:03:28.667Z,8.70
2018-10-04T06:05:57.730Z,9.83
2018-10-04T06:08:26.715Z,9.20
2018-10-04T06:10:55.671Z,9.97
2018-10-04T06:13:24.710Z,11.10
2018-10-04T06:15:53.809Z,9.77
2018-10-04T06:18:22.949Z,9.70
2018-10-04T06:20:51.978Z,9.80
2018-10-04T06:23:21.108Z,10.90
2018-10-04T06:25:50.206Z,10.10
2018-10-04T06:28:19.551Z,9.60
2018-10-04T06:30:48.909Z,8.97
2018-10-04T06:33:17.813Z,9.83
2018-10-04T06:35:46.822Z,9.53
2018-10-04T06:38:15.869Z,9.93
2018-10-04T06:40:45.009Z,9.50
2018-10-04T06:43:14.080Z,9.43
2018-10-04T06:45:43.159Z,10.50
2018-10-04T06:48:12.252Z,10.47
2018-10-04T06:50:41.364Z,10.63
2018-10-04T06:53:10.893Z,10.40
2018-10-04T06:55:40.026Z,10.23
2018-10-04T06:58:09.036Z,10.33
2018-10-04T07:00:38.203Z,9.60
2018-10-04T07:03:07.310Z,10.30
2018-10-04T07:05:36.555Z,10.33
2018-10-04T07:08:05.897Z,10.57
2018-10-04T07:10:35.065Z,10.40
2018-10-04T07:13:04.202Z,10.03
2018-10-04T07:15:33.364Z,10.40
2018-10-04T07:18:02.512Z,10.53
2018-10-04T07:20:31.588Z,11.23
2018-10-04T07:23:00.939Z,9.27
2018-10-04T07:25:30.083Z,10.10
2018-10-04T07:27:59.114Z,10.00
2018-10-04T07:30:28.205Z,10.60
2018-10-04T07:32:57.179Z,8.90
2018-10-04T07:35:26.312Z,9.90
2018-10-04T07:37:55.714Z,10.37
2018-10-04T07:40:24.906Z,10.50
2018-10-04T07:42:54.064Z,10.20
2018-10-04T07:45:23.158Z,9.17
2018-10-04T07:47:52.288Z,10.27
2018-10-04T07:50:21.359Z,9.63
2018-10-04T07:52:50.445Z,11.07
2018-10-04T07:55:19.538Z,10.23
2018-10-04T07:57:48.638Z,9.73
2018-10-04T08:00:17.750Z,10.17
2018-10-04T08:02:46.814Z,11.60
2018-10-04T08:05:15.920Z,9.70
2018-10-04T08:07:46.091Z,10.17
2018-10-04T08:10:15.154Z,10.80
2018-10-04T08:12:44.183Z,10.07
2018-10-04T08:15:13.303Z,9.00
2018-10-04T08:17:42.250Z,10.20
2018-10-04T08:20:13.435Z,10.30
2018-10-04T08:22:42.749Z,10.50
2018-10-04T08:25:11.878Z,9.60
2018-10-04T08:27:41.978Z,10.60
2018-10-04T08:30:11.748Z,10.20
2018-10-04T08:32:41.454Z,10.13
2018-10-04T08:35:13.494Z,9.73
2018-10-04T08:37:43.238Z,10.57
2018-10-04T08:40:12.330Z,9.70
2018-10-04T08:42:41.471Z,10.37
2018-10-04T08:45:10.607Z,10.00
2018-10-04T08:47:39.732Z,10.40
2018-10-04T08:50:09.733Z,10.50
2018-10-04T08:52:44.307Z,10.57
2018-10-04T08:55:19.035Z,11.23
2018-10-04T08:57:49.397Z,10.37
2018-10-04T09:00:22.754Z,10.07
2018-10-04T09:02:51.865Z,10.60
2018-10-04T09:05:21.384Z,11.27
2018-10-04T09:07:50.491Z,11.60
2018-10-04T09:10:19.569Z,10.03
2018-10-04T09:12:48.621Z,9.47
2018-10-04T09:15:17.974Z,10.23
2018-10-04T09:17:47.356Z,10.50
2018-10-04T09:20:16.410Z,11.33
2018-10-04T09:22:45.558Z,10.67
2018-10-04T09:25:14.852Z,11.30
2018-10-04T09:27:43.919Z,11.33
2018-10-04T09:30:18.446Z,10.77
2018-10-04T09:32:47.630Z,10.77
2018-10-04T09:35:16.766Z,11.37
2018-10-04T09:37:45.786Z,11.10
2018-10-04T09:40:14.775Z,11.87
2018-10-04T09:42:43.738Z,11.60
2018-10-04T09:45:13.876Z,11.90
2018-10-04T09:47:42.912Z,12.00
2018-10-04T09:50:12.374Z,10.80
2018-10-04T09:52:41.451Z,12.07
2018-10-04T09:55:12.769Z,10.67
2018-10-04T09:57:43.293Z,11.17
2018-10-04T10:00:18.389Z,11.23
2018-10-04T10:02:54.252Z,11.70
2018-10-04T10:05:23.332Z,11.77
2018-10-04T10:07:52.601Z,11.47
2018-10-04T10:10:21.874Z,11.20
2018-10-04T10:12:51.013Z,11.67
2018-10-04T10:15:20.026Z,11.63
2018-10-04T10:17:49.195Z,10.40
2018-10-04T10:20:18.272Z,11.20
2018-10-04T10:22:47.311Z,10.90
2018-10-04T10:25:16.410Z,10.90
2018-10-04T10:27:45.423Z,10.30
2018-10-04T10:30:14.529Z,12.30
2018-10-04T10:32:43.677Z,10.67
2018-10-04T10:35:12.744Z,10.67
2018-10-04T10:37:41.823Z,10.63
2018-10-04T10:40:11.248Z,11.23
2018-10-04T10:42:40.116Z,11.20
2018-10-04T10:45:09.095Z,11.33
2018-10-04T10:47:38.154Z,11.70
2018-10-04T10:50:07.185Z,10.50
2018-10-04T10:52:36.267Z,11.73
2018-10-04T10:55:05.286Z,10.27
2018-10-04T10:57:34.448Z,10.80
2018-10-04T11:00:03.581Z,10.60
2018-10-04T11:02:33.151Z,10.20
2018-10-04T11:05:02.189Z,10.40
2018-10-04T11:07:31.392Z,10.30
2018-10-04T11:10:00.657Z,10.77
2018-10-04T11:12:29.798Z,11.20
2018-10-04T11:14:59.140Z,10.70
2018-10-04T11:17:29.427Z,11.50
2018-10-04T11:19:59.975Z,10.90
2018-10-04T11:22:30.127Z,11.03
2018-10-04T11:25:00.344Z,11.43
2018-10-04T11:27:29.483Z,12.10
2018-10-04T11:29:58.612Z,11.27
2018-10-04T11:32:28.086Z,10.90
2018-10-04T11:35:01.196Z,10.63
2018-10-04T11:37:30.325Z,12.20
2018-10-04T11:40:00.510Z,11.73
2018-10-04T11:42:30.638Z,11.53
2018-10-04T11:45:01.570Z,11.70
2018-10-04T11:47:41.927Z,11.13
2018-10-04T11:50:13.806Z,10.27
2018-10-04T11:52:42.911Z,11.70
2018-10-04T11:55:12.052Z,11.87
2018-10-04T11:57:41.226Z,11.17
2018-10-04T12:00:10.266Z,11.40
2018-10-04T12:02:40.130Z,10.30
2018-10-04T12:05:09.284Z,10.30
2018-10-04T12:07:39.689Z,10.00
2018-10-04T12:10:08.690Z,10.20
2018-10-04T12:12:37.831Z,10.03
2018-10-04T12:15:06.869Z,10.63
2018-10-04T12:17:36.173Z,11.13
2018-10-04T12:20:05.339Z,10.97
2018-10-04T12:22:34.352Z,10.77
2018-10-04T12:25:03.452Z,11.90
2018-10-04T12:27:32.499Z,12.33
2018-10-04T12:30:01.553Z,11.30
2018-10-04T12:32:30.548Z,12.00
2018-10-04T12:34:59.651Z,11.10
2018-10-04T12:37:28.738Z,11.43
2018-10-04T12:39:57.846Z,10.50
2018-10-04T12:42:26.942Z,11.03
2018-10-04T12:44:56.036Z,11.27
2018-10-04T12:47:25.036Z,10.20
2018-10-04T12:49:54.225Z,10.20
2018-10-04T12:52:23.474Z,10.40
2018-10-04T12:54:52.596Z,9.50
2018-10-04T12:57:22.486Z,10.00
2018-10-04T12:59:52.420Z,9.47
2018-10-04T13:02:21.552Z,9.57
2018-10-04T13:04:50.757Z,10.13
2018-10-04T13:07:19.952Z,9.27
2018-10-04T13:09:49.126Z,9.83
2018-10-04T13:12:18.242Z,11.13
2018-10-04T13:14:47.406Z,8.47
2018-10-04T13:17:16.399Z,9.83
2018-10-04T13:19:45.524Z,8.53
2018-10-04T13:22:14.496Z,9.57
2018-10-04T13:24:43.567Z,8.30
2018-10-04T13:27:12.830Z,7.70
2018-10-04T13:29:42.026Z,8.47
2018-10-04T13:32:11.176Z,9.00
2018-10-04T13:34:40.307Z,9.80
2018-10-04T13:37:09.256Z,8.63
2018-10-04T13:39:38.321Z,9.80
2018-10-04T13:42:07.451Z,8.90
2018-10-04T13:44:36.535Z,10.57
2018-10-04T13:47:05.581Z,9.40
2018-10-04T13:49:34.740Z,9.10
2018-10-04T13:52:03.788Z,9.00
2018-10-04T13:54:32.977Z,10.87
2018-10-04T13:57:01.955Z,9.23
2018-10-04T13:59:30.971Z,7.77
2018-10-04T14:02:00.088Z,9.20
2018-10-04T14:04:29.162Z,9.00
2018-10-04T14:06:58.158Z,9.33
2018-10-04T14:09:27.316Z,9.70
2018-10-04T14:11:56.279Z,8.93
2018-10-04T14:14:25.350Z,10.07
2018-10-04T14:16:54.467Z,7.67
2018-10-04T14:19:23.587Z,8.07
2018-10-04T14:21:52.727Z,9.70
2018-10-04T14:24:22.745Z,8.27
2018-10-04T14:26:51.826Z,9.10
2018-10-04T14:29:20.958Z,8.20
2018-10-04T14:31:50.055Z,8.73
2018-10-04T14:34:19.151Z,8.57
2018-10-04T14:36:48.273Z,9.00
2018-10-04T14:39:17.390Z,9.77
2018-10-04T14:41:46.303Z,9.60
2018-10-04T14:44:16.230Z,8.93
2018-10-04T14:46:45.348Z,9.40
2018-10-04T14:49:14.790Z,10.10
2018-10-04T14:51:45.410Z,9.10
2018-10-04T14:54:14.952Z,9.83
2018-10-04T14:56:43.967Z,8.60
2018-10-04T14:59:13.148Z,8.47
2018-10-04T15:01:42.554Z,8.43
2018-10-04T15:04:11.677Z,8.40
2018-10-04T15:06:40.861Z,7.47
2018-10-04T15:09:11.450Z,8.23
2018-10-04T15:11:41.138Z,7.43
2018-10-04T15:14:10.106Z,7.23
2018-10-04T15:16:39.490Z,8.40
2018-10-04T15:19:08.484Z,7.70
2018-10-04T15:21:37.683Z,8.43
2018-10-04T15:24:06.944Z,9.07
2018-10-04T15:26:36.048Z,9.30
2018-10-04T15:29:05.016Z,9.03
2018-10-04T15:31:34.180Z,9.33
2018-10-04T15:34:03.319Z,9.07
2018-10-04T15:36:32.472Z,9.87
2018-10-04T15:39:02.558Z,9.57
2018-10-04T15:41:31.575Z,9.70
2018-10-04T15:44:00.791Z,8.40
2018-10-04T15:46:29.822Z,9.73
2018-10-04T15:48:59.019Z,10.13
2018-10-04T15:51:28.102Z,9.53
2018-10-04T15:53:57.708Z,8.63
2018-10-04T15:56:26.810Z,8.83
2018-10-04T15:58:55.881Z,7.87
2018-10-04T16:01:25.029Z,7.07
2018-10-04T16:03:54.187Z,8.20
2018-10-04T16:06:23.375Z,7.63
2018-10-04T16:08:52.382Z,8.27
2018-10-04T16:11:21.696Z,8.00
2018-10-04T16:13:50.827Z,8.20
2018-10-04T16:16:19.881Z,8.17
2018-10-04T16:18:48.960Z,8.43
2018-10-04T16:21:18.118Z,8.67
2018-10-04T16:23:47.652Z,8.23
2018-10-04T16:26:16.810Z,6.50
2018-10-04T16:28:45.834Z,6.33
2018-10-04T16:31:14.818Z,7.53
2018-10-04T16:33:43.809Z,6.00
2018-10-04T16:36:12.922Z,6.03
2018-10-04T16:38:41.922Z,6.87
2018-10-04T16:41:11.165Z,7.03
2018-10-04T16:43:40.384Z,6.23
2018-10-04T16:46:09.382Z,6.23
2018-10-04T16:48:38.438Z,6.13
2018-10-04T16:51:07.467Z,7.47
2018-10-04T16:53:36.490Z,6.40
2018-10-04T16:56:05.549Z,6.73
2018-10-04T16:58:34.705Z,6.90
2018-10-04T17:01:03.998Z,7.10
2018-10-04T17:03:33.174Z,6.33
2018-10-04T17:06:02.385Z,6.83
2018-10-04T17:08:31.540Z,7.57
2018-10-04T17:11:00.545Z,6.50
2018-10-04T17:13:29.633Z,7.00
2018-10-04T17:15:58.921Z,5.93
2018-10-04T17:18:28.018Z,6.50
2018-10-04T17:20:57.125Z,6.00
2018-10-04T17:23:26.127Z,6.30
2018-10-04T17:25:55.140Z,5.13
2018-10-04T17:28:24.323Z,6.77
2018-10-04T17:30:53.357Z,6.40
2018-10-04T17:33:22.467Z,6.17
2018-10-04T17:35:51.634Z,5.40
2018-10-04T17:38:20.670Z,5.93
2018-10-04T17:40:49.777Z,4.73
2018-10-04T17:43:19.145Z,5.30
2018-10-04T17:45:48.501Z,6.33
2018-10-04T17:48:17.779Z,5.43
2018-10-04T17:50:46.954Z,5.67
2018-10-04T17:53:16.114Z,6.10
2018-10-04T17:55:45.337Z,6.00
2018-10-04T17:58:14.513Z,6.17
2018-10-04T18:00:44.605Z,5.53
2018-10-04T18:03:13.622Z,6.17
2018-10-04T18:05:42.684Z,7.00
2018-10-04T18:08:11.800Z,6.50
2018-10-04T18:10:41.038Z,6.57
2018-10-04T18:13:10.147Z,6.50
2018-10-04T18:15:39.251Z,6.50
2018-10-04T18:18:08.276Z,6.23
2018-10-04T18:20:37.286Z,6.97
2018-10-04T18:23:06.457Z,7.23
2018-10-04T18:25:35.565Z,7.27
2018-10-04T18:28:04.876Z,7.67
2018-10-04T18:30:34.031Z,8.77
2018-10-04T18:33:03.357Z,7.30
2018-10-04T18:35:32.403Z,7.27
2018-10-04T18:38:01.549Z,7.77
2018-10-04T18:40:30.610Z,8.00
2018-10-04T18:42:59.610Z,7.83
2018-10-04T18:45:28.706Z,7.87
2018-10-04T18:47:57.751Z,7.43
2018-10-04T18:50:26.737Z,8.57
2018-10-04T18:52:55.837Z,9.00
2018-10-04T18:55:24.999Z,18.93
2018-10-04T18:57:54.696Z,16.60
2018-10-04T19:00:23.990Z,13.63
2018-10-04T19:02:53.257Z,10.07
2018-10-04T19:05:22.246Z,10.50
2018-10-04T19:07:51.514Z,10.87
2018-10-04T19:10:20.586Z,11.07
2018-10-04T19:12:49.795Z,10.10
2018-10-04T19:15:18.946Z,9.57
2018-10-04T19:17:47.930Z,9.70
2018-10-04T19:20:16.906Z,11.17
2018-10-04T19:22:45.932Z,10.20
2018-10-04T19:25:15.094Z,9.83
2018-10-04T19:27:44.131Z,11.30
2018-10-04T19:30:13.136Z,10.33
2018-10-04T19:32:42.335Z,10.30
2018-10-04T19:35:11.636Z,11.00
2018-10-04T19:37:40.936Z,10.93
2018-10-04T19:40:09.958Z,10.50
2018-10-04T19:42:39.188Z,10.97
2018-10-04T19:45:08.178Z,11.90
2018-10-04T19:47:37.214Z,11.60
2018-10-04T19:50:06.646Z,11.17
2018-10-04T19:52:35.791Z,11.90
2018-10-04T19:55:05.328Z,12.90
2018-10-04T19:57:34.696Z,11.17
2018-10-04T20:00:05.746Z,12.17
2018-10-04T20:02:34.985Z,12.50
2018-10-04T20:05:04.090Z,13.30
2018-10-04T20:07:33.097Z,12.00
2018-10-04T20:10:02.281Z,15.80
2018-10-04T20:12:31.539Z,15.30
2018-10-04T20:15:00.630Z,13.90
2018-10-04T20:17:29.837Z,15.73
2018-10-04T20:19:58.844Z,14.20
2018-10-04T20:22:27.996Z,14.70
2018-10-04T20:24:57.058Z,13.87
2018-10-04T20:27:26.115Z,16.30
2018-10-04T20:29:55.365Z,15.37
2018-10-04T20:32:24.436Z,14.67
2018-10-04T20:34:53.554Z,14.10
2018-10-04T20:37:22.658Z,15.40
2018-10-04T20:39:51.750Z,15.23
2018-10-04T20:42:20.704Z,14.60
2018-10-04T20:44:49.867Z,13.87
2018-10-04T20:47:19.097Z,15.40
2018-10-04T20:49:48.203Z,16.07
2018-10-04T20:52:17.605Z,15.57
2018-10-04T20:54:47.784Z,14.13
2018-10-04T20:57:16.809Z,15.43
2018-10-04T20:59:46.930Z,16.70
2018-10-04T21:02:21.839Z,18.00
2018-10-04T21:04:51.047Z,17.37
2018-10-04T21:07:20.227Z,18.80
2018-10-04T21:09:49.174Z,17.80
2018-10-04T21:12:18.417Z,17.13
2018-10-04T21:14:47.371Z,18.53
2018-10-04T21:17:16.329Z,18.20
2018-10-04T21:19:45.505Z,16.70
2018-10-04T21:22:14.702Z,16.50
2018-10-04T21:24:43.709Z,17.20
2018-10-04T21:27:13.219Z,15.23
2018-10-04T21:29:42.215Z,15.90
2018-10-04T21:32:11.416Z,17.90
2018-10-04T21:34:40.564Z,17.27
2018-10-04T21:37:09.670Z,17.50
2018-10-04T21:39:38.831Z,17.17
2018-10-04T21:42:07.822Z,19.30
2018-10-04T21:44:36.817Z,17.97
2018-10-04T21:47:05.997Z,18.63
2018-10-04T21:49:35.258Z,17.90
2018-10-04T21:52:04.466Z,18.37
2018-10-04T21:54:33.508Z,18.63
2018-10-04T21:57:02.602Z,18.50
2018-10-04T21:59:31.712Z,19.20
2018-10-04T22:02:00.951Z,20.77
2018-10-04T22:04:29.933Z,19.00
2018-10-04T22:06:58.990Z,18.30
2018-10-04T22:09:28.096Z,17.33
2018-10-04T22:11:57.443Z,17.90
2018-10-04T22:14:26.437Z,18.00
2018-10-04T22:16:55.425Z,17.37
2018-10-04T22:19:25.698Z,19.40
2018-10-04T22:21:54.914Z,17.33
2018-10-04T22:24:23.913Z,17.07
2018-10-04T22:26:52.937Z,17.80
2018-10-04T22:29:21.922Z,16.40
2018-10-04T22:31:50.925Z,18.37
2018-10-04T22:34:19.909Z,17.20
2018-10-04T22:36:48.927Z,17.10
2018-10-04T22:39:18.136Z,17.40
2018-10-04T22:41:47.226Z,17.20
2018-10-04T22:44:16.263Z,17.83
2018-10-04T22:46:45.573Z,16.97
2018-10-04T22:49:14.700Z,18.43
2018-10-04T22:51:43.694Z,17.70
2018-10-04T22:54:12.842Z,18.70
2018-10-04T22:56:41.942Z,18.93
2018-10-04T22:59:11.901Z,16.97
2018-10-04T23:01:42.098Z,16.37
2018-10-04T23:04:11.227Z,19.00
2018-10-04T23:06:40.229Z,16.07
2018-10-04T23:09:09.231Z,18.30
2018-10-04T23:11:38.250Z,16.93
2018-10-04T23:14:07.200Z,17.60
2018-10-04T23:16:36.693Z,17.00
2018-10-04T23:19:06.825Z,17.50
2018-10-04T23:21:35.814Z,17.47
2018-10-04T23:24:04.892Z,17.90
2018-10-04T23:26:33.982Z,17.00
2018-10-04T23:29:04.449Z,18.13
2018-10-04T23:31:33.608Z,16.27
2018-10-04T23:34:02.582Z,16.70
2018-10-04T23:36:31.697Z,16.30
2018-10-04T23:39:00.690Z,17.07
2018-10-04T23:41:29.778Z,17.27
2018-10-04T23:43:58.714Z,16.10
2018-10-04T23:46:27.900Z,16.97
2018-10-04T23:48:56.902Z,16.63
2018-10-04T23:51:26.023Z,16.10
2018-10-04T23:53:55.022Z,16.20
2018-10-04T23:56:24.126Z,15.37
2018-10-04T23:58:53.300Z,15.70
